createdAt,value
2019-04-10T00:00:45.999Z,24.10
2019-04-10T00:03:25.810Z,23.37
2019-04-10T00:05:47.850Z,23.70
2019-04-10T00:08:17.976Z,23.40
2019-04-10T00:10:48.004Z,23.03
2019-04-10T00:13:18.419Z,23.23
2019-04-10T00:15:48.647Z,24.07
2019-04-10T00:18:18.596Z,23.67
2019-04-10T00:20:47.688Z,23.27
2019-04-10T00:23:17.396Z,23.43
2019-04-10T00:25:47.087Z,22.37
2019-04-10T00:28:17.073Z,23.57
2019-04-10T00:30:46.656Z,23.73
2019-04-10T00:33:16.611Z,23.63
2019-04-10T00:35:46.325Z,23.77
2019-04-10T00:38:15.738Z,22.23
2019-04-10T00:40:45.801Z,23.40
2019-04-10T00:43:15.397Z,23.13
2019-04-10T00:45:44.190Z,23.30
2019-04-10T00:48:13.541Z,23.47
2019-04-10T00:50:42.613Z,23.00
2019-04-10T00:53:12.740Z,23.73
2019-04-10T00:55:42.253Z,23.77
2019-04-10T00:58:12.103Z,23.20
2019-04-10T01:00:41.357Z,23.37
2019-04-10T01:03:12.130Z,23.50
2019-04-10T01:05:41.666Z,23.57
2019-04-10T01:08:11.344Z,24.27
2019-04-10T01:10:40.233Z,22.77
2019-04-10T01:13:10.341Z,24.23
2019-04-10T01:15:39.537Z,22.53
2019-04-10T01:18:08.520Z,22.87
2019-04-10T01:20:37.730Z,22.70
2019-04-10T01:23:07.799Z,23.23
2019-04-10T01:25:37.113Z,24.00
2019-04-10T01:28:06.760Z,23.40
2019-04-10T01:30:36.617Z,23.43
2019-04-10T01:33:06.193Z,24.53
2019-04-10T01:35:35.306Z,23.13
2019-04-10T01:38:06.124Z,23.93
2019-04-10T01:40:35.273Z,22.80
2019-04-10T01:43:09.713Z,23.37
2019-04-10T01:45:35.655Z,23.27
2019-04-10T01:48:05.931Z,24.17
2019-04-10T01:50:35.412Z,23.83
2019-04-10T01:53:04.367Z,24.03
2019-04-10T01:55:34.193Z,23.07
2019-04-10T01:58:05.925Z,23.17
2019-04-10T02:00:35.562Z,23.33
2019-04-10T02:03:05.583Z,23.43
2019-04-10T02:05:34.663Z,24.33
2019-04-10T02:08:08.968Z,23.00
2019-04-10T02:10:34.703Z,23.00
2019-04-10T02:13:03.569Z,23.60
2019-04-10T02:15:32.434Z,23.73
2019-04-10T02:18:01.580Z,23.20
2019-04-10T02:20:31.314Z,24.10
2019-04-10T02:23:01.709Z,23.07
2019-04-10T02:25:31.038Z,23.40
2019-04-10T02:27:59.974Z,23.37
2019-04-10T02:30:30.338Z,22.93
2019-04-10T02:32:59.811Z,22.20
2019-04-10T02:35:29.740Z,22.37
2019-04-10T02:38:18.657Z,23.67
2019-04-10T02:40:31.011Z,21.90
2019-04-10T02:43:00.788Z,22.13
2019-04-10T02:45:30.351Z,22.17
2019-04-10T02:47:59.489Z,22.10
2019-04-10T02:50:29.400Z,22.13
2019-04-10T02:52:59.251Z,21.97
2019-04-10T02:55:29.125Z,22.10
2019-04-10T02:58:00.253Z,21.93
2019-04-10T03:00:30.369Z,22.63
2019-04-10T03:02:59.547Z,23.10
2019-04-10T03:05:30.284Z,23.37
2019-04-10T03:08:00.270Z,24.03
2019-04-10T03:10:40.469Z,23.73
2019-04-10T03:13:00.876Z,23.63
2019-04-10T03:15:31.322Z,22.93
2019-04-10T03:18:00.785Z,23.33
2019-04-10T03:20:30.258Z,24.13
2019-04-10T03:22:59.206Z,23.60
2019-04-10T03:25:28.865Z,24.03
2019-04-10T03:27:58.887Z,23.67
2019-04-10T03:30:29.486Z,22.00
2019-04-10T03:33:29.851Z,24.00
2019-04-10T03:35:57.511Z,24.30
2019-04-10T03:38:26.324Z,23.60
2019-04-10T03:40:55.576Z,24.23
2019-04-10T03:43:25.824Z,24.23
2019-04-10T03:45:55.190Z,24.73
2019-04-10T03:48:25.100Z,24.00
2019-04-10T03:50:54.291Z,23.63
2019-04-10T03:53:24.541Z,24.70
2019-04-10T03:55:53.843Z,25.57
2019-04-10T03:58:23.121Z,25.60
2019-04-10T04:00:52.232Z,23.23
2019-04-10T04:03:21.422Z,24.20
2019-04-10T04:05:51.060Z,24.93
2019-04-10T04:08:21.461Z,24.07
2019-04-10T04:10:51.315Z,23.63
2019-04-10T04:13:20.290Z,24.87
2019-04-10T04:15:50.600Z,24.23
2019-04-10T04:18:19.999Z,25.07
2019-04-10T04:20:49.110Z,24.67
2019-04-10T04:23:19.409Z,24.23
2019-04-10T04:25:48.716Z,23.90
2019-04-10T04:28:17.639Z,24.37
2019-04-10T04:30:46.747Z,25.43
2019-04-10T04:33:15.549Z,24.80
2019-04-10T04:35:44.525Z,24.23
2019-04-10T04:38:13.486Z,24.43
2019-04-10T04:40:42.546Z,24.57
2019-04-10T04:43:12.482Z,24.30
2019-04-10T04:45:42.243Z,24.03
2019-04-10T04:48:11.215Z,24.90
2019-04-10T04:50:41.533Z,26.00
2019-04-10T04:53:10.792Z,25.10
2019-04-10T04:55:39.800Z,23.50
2019-04-10T04:58:09.707Z,24.37
2019-04-10T05:00:39.592Z,23.90
2019-04-10T05:03:09.908Z,24.83
2019-04-10T05:05:39.506Z,23.93
2019-04-10T05:08:08.493Z,24.47
2019-04-10T05:10:38.189Z,24.20
2019-04-10T05:13:08.137Z,23.97
2019-04-10T05:15:37.454Z,23.93
2019-04-10T05:18:06.389Z,24.20
2019-04-10T05:20:43.936Z,24.00
2019-04-10T05:23:06.245Z,23.73
2019-04-10T05:25:35.995Z,24.23
2019-04-10T05:28:05.884Z,23.50
2019-04-10T05:30:35.677Z,22.93
2019-04-10T05:33:04.782Z,23.03
2019-04-10T05:35:35.001Z,23.33
2019-04-10T05:38:04.842Z,23.47
2019-04-10T05:40:34.672Z,22.90
2019-04-10T05:43:03.754Z,23.40
2019-04-10T05:45:33.883Z,23.13
2019-04-10T05:48:03.319Z,23.60
2019-04-10T05:50:32.466Z,22.53
2019-04-10T05:53:02.330Z,21.83
2019-04-10T05:55:31.447Z,22.90
2019-04-10T05:58:01.595Z,22.83
2019-04-10T06:00:30.742Z,21.80
2019-04-10T06:03:00.443Z,22.00
2019-04-10T06:05:29.917Z,23.23
2019-04-10T06:07:59.379Z,21.50
2019-04-10T06:10:28.711Z,21.47
2019-04-10T06:12:58.421Z,21.80
2019-04-10T06:15:28.644Z,22.20
2019-04-10T06:17:58.738Z,21.77
2019-04-10T06:20:27.686Z,22.23
2019-04-10T06:22:57.366Z,21.83
2019-04-10T06:25:28.453Z,21.27
2019-04-10T06:27:57.182Z,21.80
2019-04-10T06:30:26.100Z,20.57
2019-04-10T06:32:55.742Z,20.80
2019-04-10T06:35:26.053Z,21.17
2019-04-10T06:37:56.597Z,21.97
2019-04-10T06:40:27.469Z,21.97
2019-04-10T06:42:57.677Z,20.57
2019-04-10T06:45:28.019Z,21.93
2019-04-10T06:47:56.933Z,20.67
2019-04-10T06:50:26.555Z,21.30
2019-04-10T06:52:56.873Z,22.33
2019-04-10T06:55:26.353Z,20.70
2019-04-10T06:57:57.701Z,21.97
2019-04-10T07:00:26.156Z,21.40
2019-04-10T07:02:56.606Z,21.03
2019-04-10T07:05:37.171Z,21.70
2019-04-10T07:08:05.754Z,20.60
2019-04-10T07:10:34.825Z,21.17
2019-04-10T07:12:59.646Z,22.07
2019-04-10T07:15:29.421Z,21.20
2019-04-10T07:17:58.861Z,20.20
2019-04-10T07:20:29.575Z,21.03
2019-04-10T07:22:59.534Z,20.77
2019-04-10T07:25:29.877Z,20.77
2019-04-10T07:28:01.176Z,20.10
2019-04-10T07:30:29.934Z,19.63
2019-04-10T07:32:59.302Z,19.27
2019-04-10T07:35:32.871Z,19.63
2019-04-10T07:37:59.678Z,19.30
2019-04-10T07:40:33.082Z,19.73
2019-04-10T07:42:59.512Z,19.87
2019-04-10T07:45:28.810Z,19.10
2019-04-10T07:47:58.148Z,18.87
2019-04-10T07:50:28.177Z,18.87
2019-04-10T07:52:57.651Z,19.20
2019-04-10T07:55:27.086Z,18.10
2019-04-10T07:57:57.212Z,19.90
2019-04-10T08:00:26.979Z,18.93
2019-04-10T08:02:57.503Z,18.23
2019-04-10T08:05:27.193Z,18.17
2019-04-10T08:07:57.454Z,18.30
2019-04-10T08:10:26.582Z,17.87
2019-04-10T08:12:56.060Z,18.87
2019-04-10T08:15:25.206Z,18.97
2019-04-10T08:17:54.194Z,18.13
2019-04-10T08:20:24.003Z,16.90
2019-04-10T08:22:53.365Z,17.13
2019-04-10T08:25:22.781Z,17.97
2019-04-10T08:27:52.255Z,17.33
2019-04-10T08:30:21.655Z,17.73
2019-04-10T08:32:57.991Z,16.97
2019-04-10T08:35:21.689Z,17.33
2019-04-10T08:37:50.897Z,17.40
2019-04-10T08:40:21.154Z,17.87
2019-04-10T08:42:51.309Z,16.80
2019-04-10T08:45:21.070Z,16.57
2019-04-10T08:47:50.841Z,16.53
2019-04-10T08:50:19.879Z,16.07
2019-04-10T08:52:49.166Z,16.33
2019-04-10T08:55:18.001Z,17.40
2019-04-10T08:57:47.083Z,17.20
2019-04-10T09:00:16.584Z,16.30
2019-04-10T09:02:46.451Z,15.80
2019-04-10T09:05:15.916Z,15.50
2019-04-10T09:07:44.742Z,16.57
2019-04-10T09:10:14.354Z,15.80
2019-04-10T09:12:43.453Z,16.33
2019-04-10T09:15:13.877Z,15.23
2019-04-10T09:17:43.808Z,15.30
2019-04-10T09:20:14.211Z,15.53
2019-04-10T09:23:07.382Z,15.40
2019-04-10T09:25:16.095Z,15.13
2019-04-10T09:27:46.286Z,14.40
2019-04-10T09:30:16.416Z,15.57
2019-04-10T09:32:46.433Z,13.83
2019-04-10T09:35:16.389Z,14.40
2019-04-10T09:37:46.289Z,14.20
2019-04-10T09:40:16.264Z,15.30
2019-04-10T09:42:45.983Z,14.33
2019-04-10T09:45:15.875Z,14.27
2019-04-10T09:47:45.741Z,14.67
2019-04-10T09:50:15.364Z,14.67
2019-04-10T09:52:44.301Z,14.57
2019-04-10T09:55:13.877Z,14.73
2019-04-10T09:57:43.189Z,15.30
2019-04-10T10:00:12.448Z,15.43
2019-04-10T10:02:41.395Z,15.33
2019-04-10T10:05:11.083Z,15.50
2019-04-10T10:07:41.034Z,15.50
2019-04-10T10:10:11.021Z,16.40
2019-04-10T10:12:40.788Z,16.03
2019-04-10T10:15:11.399Z,15.87
2019-04-10T10:17:41.201Z,16.47
2019-04-10T10:20:11.619Z,15.57
2019-04-10T10:22:41.307Z,16.53
2019-04-10T10:25:11.201Z,16.23
2019-04-10T10:27:40.780Z,14.17
2019-04-10T10:30:11.517Z,15.13
2019-04-10T10:32:42.166Z,14.83
2019-04-10T10:35:12.094Z,14.77
2019-04-10T10:37:41.394Z,14.70
2019-04-10T10:40:11.946Z,13.73
2019-04-10T10:42:42.161Z,14.53
2019-04-10T10:45:12.469Z,13.50
2019-04-10T10:47:41.535Z,14.50
2019-04-10T10:50:11.061Z,13.53
2019-04-10T10:52:39.960Z,12.93
2019-04-10T10:55:09.636Z,13.30
2019-04-10T10:57:39.623Z,13.57
2019-04-10T11:00:11.930Z,13.37
2019-04-10T11:02:39.870Z,13.20
2019-04-10T11:05:10.632Z,13.77
2019-04-10T11:07:40.545Z,13.73
2019-04-10T11:10:10.668Z,15.13
2019-04-10T11:12:39.592Z,14.17
2019-04-10T11:15:09.984Z,13.80
2019-04-10T11:17:40.392Z,13.50
2019-04-10T11:20:12.650Z,13.93
2019-04-10T11:22:42.413Z,12.37
2019-04-10T11:25:12.258Z,12.53
2019-04-10T11:27:42.180Z,12.13
2019-04-10T11:30:12.546Z,11.63
2019-04-10T11:32:42.351Z,12.07
2019-04-10T11:35:12.955Z,12.37
2019-04-10T11:37:45.455Z,12.73
2019-04-10T11:40:15.804Z,13.27
2019-04-10T11:42:44.870Z,14.10
2019-04-10T11:45:17.040Z,13.70
2019-04-10T11:47:47.565Z,14.07
2019-04-10T11:50:18.748Z,14.67
2019-04-10T11:52:53.179Z,14.40
2019-04-10T11:55:21.225Z,15.50
2019-04-10T11:57:51.556Z,15.43
2019-04-10T12:00:45.347Z,13.50
2019-04-10T12:03:10.209Z,13.63
2019-04-10T12:05:42.038Z,14.07
2019-04-10T12:13:16.990Z,14.03
2019-04-10T12:15:46.342Z,13.60
2019-04-10T12:18:16.108Z,14.43
2019-04-10T12:20:45.284Z,14.80
2019-04-10T12:23:14.385Z,15.10
2019-04-10T12:25:43.316Z,14.07
2019-04-10T12:28:12.229Z,14.37
2019-04-10T12:30:41.693Z,14.53
2019-04-10T12:33:11.727Z,14.63
2019-04-10T12:35:40.794Z,14.87
2019-04-10T12:38:13.019Z,14.67
2019-04-10T12:40:42.523Z,14.70
2019-04-10T12:43:12.676Z,14.23
2019-04-10T12:45:42.373Z,14.23
2019-04-10T12:48:12.495Z,14.60
2019-04-10T12:50:41.652Z,14.67
2019-04-10T12:53:11.581Z,14.80
2019-04-10T12:55:41.826Z,14.90
2019-04-10T12:58:13.597Z,14.63
2019-04-10T13:00:42.810Z,14.90
2019-04-10T13:03:12.736Z,15.00
2019-04-10T13:05:42.957Z,14.93
2019-04-10T13:08:21.126Z,15.87
2019-04-10T13:10:44.010Z,15.50
2019-04-10T13:13:13.694Z,13.97
2019-04-10T13:15:43.569Z,14.50
2019-04-10T13:18:12.750Z,14.80
2019-04-10T13:20:42.375Z,15.27
2019-04-10T13:23:13.885Z,16.53
2019-04-10T13:25:42.773Z,17.23
2019-04-10T13:28:13.223Z,15.50
2019-04-10T13:30:49.720Z,16.30
2019-04-10T13:33:14.021Z,15.13
2019-04-10T13:35:44.243Z,15.10
2019-04-10T13:38:23.116Z,14.70
2019-04-10T13:40:45.870Z,15.43
2019-04-10T13:43:15.958Z,14.60
2019-04-10T13:45:45.875Z,15.37
2019-04-10T13:48:16.407Z,15.23
2019-04-10T13:50:46.539Z,13.83
2019-04-10T13:53:16.146Z,14.23
2019-04-10T13:55:44.965Z,14.00
2019-04-10T13:58:15.091Z,13.63
2019-04-10T14:00:45.134Z,14.03
2019-04-10T14:03:14.935Z,13.97
2019-04-10T14:05:45.058Z,14.13
2019-04-10T14:08:16.574Z,14.23
2019-04-10T14:10:46.819Z,14.73
2019-04-10T14:13:17.778Z,14.20
2019-04-10T14:15:46.774Z,14.33
2019-04-10T14:18:16.676Z,14.50
2019-04-10T14:20:46.132Z,13.63
2019-04-10T14:23:22.239Z,14.67
2019-04-10T14:25:58.198Z,14.13
2019-04-10T14:28:29.483Z,14.80
2019-04-10T14:31:02.066Z,14.63
2019-04-10T14:33:32.464Z,14.37
2019-04-10T14:36:03.344Z,14.63
2019-04-10T14:38:32.884Z,13.97
2019-04-10T14:41:03.294Z,14.53
2019-04-10T14:43:32.959Z,13.77
2019-04-10T14:46:02.659Z,14.20
2019-04-10T14:48:32.424Z,13.93
2019-04-10T14:51:01.295Z,13.50
2019-04-10T14:53:31.211Z,14.30
2019-04-10T14:56:00.398Z,14.23
2019-04-10T14:58:31.331Z,14.03
2019-04-10T15:01:02.661Z,12.97
2019-04-10T15:03:32.848Z,12.73
2019-04-10T15:06:02.577Z,13.53
2019-04-10T15:08:33.402Z,13.33
2019-04-10T15:11:02.539Z,14.33
2019-04-10T15:13:31.905Z,13.23
2019-04-10T15:16:01.350Z,14.20
2019-04-10T15:18:30.932Z,12.63
2019-04-10T15:21:00.701Z,12.60
2019-04-10T15:23:30.106Z,12.43
2019-04-10T15:25:59.755Z,12.77
2019-04-10T15:28:29.710Z,13.47
2019-04-10T15:31:01.309Z,12.53
2019-04-10T15:33:31.688Z,13.10
2019-04-10T15:36:01.935Z,13.10
2019-04-10T15:38:31.380Z,13.40
2019-04-10T15:41:00.917Z,13.33
2019-04-10T15:43:31.077Z,12.33
2019-04-10T15:46:00.294Z,12.87
2019-04-10T15:48:30.003Z,12.50
2019-04-10T15:51:00.092Z,13.17
2019-04-10T15:53:29.576Z,10.80
2019-04-10T15:55:58.478Z,11.77
2019-04-10T15:58:27.859Z,12.33
2019-04-10T16:00:59.392Z,11.43
2019-04-10T16:03:28.770Z,12.20
2019-04-10T16:05:58.498Z,11.17
2019-04-10T16:08:28.392Z,11.77
2019-04-10T16:11:05.954Z,12.23
2019-04-10T16:13:48.503Z,12.33
2019-04-10T16:16:49.339Z,11.43
2019-04-10T16:19:54.331Z,11.50
2019-04-10T16:22:27.948Z,12.17
2019-04-10T16:24:59.243Z,11.83
2019-04-10T16:27:28.674Z,11.53
2019-04-10T16:29:58.933Z,11.83
2019-04-10T16:32:29.707Z,10.73
2019-04-10T16:34:58.963Z,11.47
2019-04-10T16:37:28.205Z,10.10
2019-04-10T16:40:03.465Z,11.10
2019-04-10T16:42:28.565Z,10.17
2019-04-10T16:44:57.935Z,10.73
2019-04-10T16:47:28.177Z,10.70
2019-04-10T16:49:57.253Z,10.87
2019-04-10T16:52:27.144Z,10.70
2019-04-10T16:54:57.593Z,10.07
2019-04-10T16:57:26.938Z,10.30
2019-04-10T16:59:56.421Z,10.13
2019-04-10T17:02:26.559Z,10.30
2019-04-10T17:04:56.406Z,10.43
2019-04-10T17:07:25.386Z,10.00
2019-04-10T17:09:54.915Z,11.03
2019-04-10T17:12:25.374Z,10.33
2019-04-10T17:14:55.541Z,10.13
2019-04-10T17:17:25.069Z,10.73
2019-04-10T17:19:57.241Z,10.50
2019-04-10T17:22:32.395Z,10.53
2019-04-10T17:24:56.431Z,11.33
2019-04-10T17:27:25.939Z,10.50
2019-04-10T17:29:56.653Z,11.37
2019-04-10T17:32:26.997Z,10.97
2019-04-10T17:34:57.100Z,10.87
2019-04-10T17:37:26.761Z,10.30
2019-04-10T17:39:56.057Z,10.23
2019-04-10T17:42:25.225Z,10.83
2019-04-10T17:44:54.697Z,11.23
2019-04-10T17:47:24.950Z,10.50
2019-04-10T17:49:56.066Z,11.27
2019-04-10T17:52:27.145Z,10.97
2019-04-10T17:54:56.819Z,10.80
2019-04-10T17:57:35.274Z,10.77
2019-04-10T17:59:58.645Z,10.53
2019-04-10T18:02:27.899Z,10.10
2019-04-10T18:04:58.023Z,10.50
2019-04-10T18:07:28.149Z,10.90
2019-04-10T18:09:58.154Z,10.83
2019-04-10T18:12:27.939Z,10.60
2019-04-10T18:14:58.103Z,10.00
2019-04-10T18:17:29.125Z,10.13
2019-04-10T18:19:59.089Z,9.73
2019-04-10T18:22:29.476Z,9.60
2019-04-10T18:25:00.057Z,9.90
2019-04-10T18:27:30.218Z,9.87
2019-04-10T18:30:00.187Z,8.70
2019-04-10T18:32:31.805Z,9.90
2019-04-10T18:35:00.682Z,9.63
2019-04-10T18:37:31.005Z,9.70
2019-04-10T18:40:01.030Z,9.13
2019-04-10T18:42:30.876Z,9.67
2019-04-10T18:44:59.920Z,9.57
2019-04-10T18:47:32.023Z,8.90
2019-04-10T18:50:00.940Z,8.93
2019-04-10T18:52:31.676Z,8.23
2019-04-10T18:55:00.873Z,8.57
2019-04-10T18:57:33.465Z,9.20
2019-04-10T19:00:18.970Z,8.80
2019-04-10T19:03:07.544Z,8.03
2019-04-10T19:05:41.523Z,8.37
2019-04-10T19:08:12.801Z,7.73
2019-04-10T19:10:41.134Z,8.40
2019-04-10T19:13:10.410Z,7.97
2019-04-10T19:15:40.544Z,8.47
2019-04-10T19:18:11.192Z,8.30
2019-04-10T19:20:40.712Z,8.40
2019-04-10T19:23:10.026Z,8.60
2019-04-10T19:25:40.679Z,8.33
2019-04-10T19:28:10.766Z,8.60
2019-04-10T19:30:45.771Z,7.47
2019-04-10T19:33:16.143Z,7.67
2019-04-10T19:35:45.541Z,8.00
2019-04-10T19:38:14.821Z,8.47
2019-04-10T19:40:45.733Z,7.53
2019-04-10T19:43:15.923Z,8.43
2019-04-10T19:45:45.371Z,7.87
2019-04-10T19:48:15.158Z,8.73
2019-04-10T19:50:45.629Z,7.30
2019-04-10T19:53:15.136Z,8.27
2019-04-10T19:55:44.399Z,7.93
2019-04-10T19:58:14.198Z,8.43
2019-04-10T20:00:44.375Z,8.60
2019-04-10T20:03:13.320Z,8.93
2019-04-10T20:05:42.345Z,10.17
2019-04-10T20:08:13.239Z,12.80
2019-04-10T20:10:43.620Z,8.80
2019-04-10T20:13:13.082Z,7.53
2019-04-10T20:15:42.624Z,7.73
2019-04-10T20:18:12.621Z,7.37
2019-04-10T20:20:42.100Z,7.57
2019-04-10T20:23:12.591Z,7.17
2019-04-10T20:25:42.891Z,6.90
2019-04-10T20:28:12.563Z,6.50
2019-04-10T20:30:42.475Z,7.77
2019-04-10T20:33:11.549Z,7.10
2019-04-10T20:35:40.695Z,7.27
2019-04-10T20:38:11.330Z,7.00
2019-04-10T20:40:42.670Z,7.63
2019-04-10T20:43:12.964Z,6.57
2019-04-10T20:45:42.250Z,7.23
2019-04-10T20:48:12.053Z,6.90
2019-04-10T20:50:41.777Z,7.20
2019-04-10T20:53:11.815Z,7.03
2019-04-10T20:55:41.912Z,7.47
2019-04-10T20:58:11.371Z,7.23
2019-04-10T21:00:41.552Z,7.30
2019-04-10T21:03:13.507Z,7.07
2019-04-10T21:05:44.579Z,7.03
2019-04-10T21:08:14.107Z,6.50
2019-04-10T21:10:45.102Z,7.07
2019-04-10T21:13:15.021Z,6.80
2019-04-10T21:15:44.435Z,6.77
2019-04-10T21:18:13.600Z,6.80
2019-04-10T21:20:43.183Z,7.00
2019-04-10T21:23:13.199Z,7.17
2019-04-10T21:25:43.546Z,6.87
2019-04-10T21:28:14.065Z,6.47
2019-04-10T21:31:01.018Z,6.40
2019-04-10T21:34:05.470Z,6.47
2019-04-10T21:36:37.069Z,7.13
2019-04-10T21:39:08.006Z,7.67
2019-04-10T21:41:36.971Z,7.03
2019-04-10T21:44:06.464Z,7.17
2019-04-10T21:46:36.712Z,6.20
2019-04-10T21:49:06.136Z,6.70
2019-04-10T21:51:35.352Z,7.27
2019-04-10T21:54:04.619Z,6.90
2019-04-10T21:56:33.739Z,6.83
2019-04-10T21:59:03.222Z,7.00
2019-04-10T22:01:32.577Z,6.53
2019-04-10T22:04:02.721Z,6.80
2019-04-10T22:06:51.463Z,6.77
2019-04-10T22:09:39.081Z,6.67
2019-04-10T22:12:23.722Z,6.87
2019-04-10T22:14:45.966Z,6.67
2019-04-10T22:17:17.057Z,6.77
2019-04-10T22:19:47.371Z,7.03
2019-04-10T22:22:18.060Z,6.83
2019-04-10T22:24:48.504Z,7.27
2019-04-10T22:27:19.036Z,6.87
2019-04-10T22:29:48.643Z,6.67
2019-04-10T22:32:18.657Z,7.30
2019-04-10T22:34:47.988Z,6.70
2019-04-10T22:37:17.447Z,6.60
2019-04-10T22:39:46.806Z,6.87
2019-04-10T22:42:16.893Z,7.17
2019-04-10T22:44:47.158Z,7.00
2019-04-10T22:47:17.464Z,7.00
2019-04-10T22:49:47.187Z,7.57
2019-04-10T22:52:17.589Z,6.90
2019-04-10T22:54:47.160Z,6.77
2019-04-10T22:57:16.798Z,6.90
2019-04-10T22:59:46.795Z,7.20
2019-04-10T23:02:16.534Z,7.10
2019-04-10T23:04:45.736Z,6.97
2019-04-10T23:07:14.586Z,6.90
2019-04-10T23:09:44.446Z,6.83
2019-04-10T23:12:14.160Z,7.70
2019-04-10T23:14:44.933Z,6.97
2019-04-10T23:17:14.688Z,7.23
2019-04-10T23:19:44.581Z,6.90
2019-04-10T23:22:13.864Z,7.03
2019-04-10T23:24:43.488Z,6.57
2019-04-10T23:27:13.388Z,7.57
2019-04-10T23:29:44.286Z,7.00
2019-04-10T23:32:13.475Z,6.90
2019-04-10T23:34:43.084Z,7.40
2019-04-10T23:37:12.931Z,6.97
2019-04-10T23:39:42.261Z,7.67
2019-04-10T23:42:12.759Z,7.00
2019-04-10T23:44:42.929Z,7.20
2019-04-10T23:47:12.183Z,7.30
2019-04-10T23:49:42.185Z,7.03
2019-04-10T23:52:11.795Z,7.10
2019-04-10T23:54:41.607Z,6.70
2019-04-10T23:57:11.573Z,7.23
2019-04-10T23:59:40.999Z,7.10
